createdAt,value
2019-01-21T00:01:26.592Z,21
2019-01-21T00:04:32.597Z,21
2019-01-21T00:07:38.555Z,21
2019-01-21T00:10:44.574Z,21
2019-01-21T00:13:50.674Z,21
2019-01-21T00:16:56.701Z,21
2019-01-21T00:20:02.767Z,21
2019-01-21T00:23:08.826Z,21
2019-01-21T00:26:14.891Z,21
2019-01-21T00:29:21.280Z,21
2019-01-21T00:32:27.166Z,21
2019-01-21T00:35:33.103Z,21
2019-01-21T00:38:39.127Z,21
2019-01-21T00:41:44.970Z,20.9
2019-01-21T00:44:51.061Z,20.9
2019-01-21T00:47:57.052Z,21
2019-01-21T00:51:02.972Z,20.9
2019-01-21T00:54:09.119Z,20.9
2019-01-21T00:57:14.988Z,20.9
2019-01-21T01:00:20.952Z,21
2019-01-21T01:03:29.772Z,20.9
2019-01-21T01:06:35.645Z,20.9
2019-01-21T01:09:41.697Z,21
2019-01-21T01:12:47.704Z,21
2019-01-21T01:15:53.643Z,21
2019-01-21T01:18:59.557Z,21.1
2019-01-21T01:22:05.484Z,21.1
2019-01-21T01:25:11.456Z,21.2
2019-01-21T01:28:17.430Z,21.2
2019-01-21T01:31:23.298Z,21.3
2019-01-21T01:34:29.173Z,21.3
2019-01-21T01:37:35.131Z,21.4
2019-01-21T01:40:41.082Z,21.4
2019-01-21T01:43:46.989Z,21.4
2019-01-21T01:46:52.975Z,21.5
2019-01-21T01:49:58.960Z,21.5
2019-01-21T01:53:05.014Z,21.5
2019-01-21T01:56:11.035Z,21.6
2019-01-21T01:59:16.985Z,21.6
2019-01-21T02:02:22.893Z,21.6
2019-01-21T02:05:29.529Z,21.7
2019-01-21T02:08:35.529Z,21.7
2019-01-21T02:11:41.487Z,21.8
2019-01-21T02:14:47.517Z,21.8
2019-01-21T02:17:55.027Z,21.8
2019-01-21T02:21:00.903Z,21.8
2019-01-21T02:24:06.828Z,21.9
2019-01-21T02:27:12.713Z,21.9
2019-01-21T02:30:20.360Z,21.9
2019-01-21T02:33:26.272Z,21.9
2019-01-21T02:36:32.388Z,22
2019-01-21T02:39:38.437Z,22
2019-01-21T02:42:45.817Z,22
2019-01-21T02:45:51.867Z,22
2019-01-21T02:48:57.966Z,22
2019-01-21T02:52:03.890Z,22.1
2019-01-21T02:55:10.888Z,22.1
2019-01-21T02:58:16.979Z,22.1
2019-01-21T03:01:22.885Z,22.1
2019-01-21T03:04:28.905Z,22.1
2019-01-21T03:07:34.848Z,22.2
2019-01-21T03:10:40.830Z,22.2
2019-01-21T03:13:46.854Z,22.2
2019-01-21T03:16:52.924Z,22.2
2019-01-21T03:19:58.890Z,22.2
2019-01-21T03:23:04.786Z,22.2
2019-01-21T03:26:10.707Z,22.3
2019-01-21T03:29:17.793Z,22.3
2019-01-21T03:32:23.765Z,22.3
2019-01-21T03:35:29.810Z,22.3
2019-01-21T03:38:35.910Z,22.3
2019-01-21T03:41:43.795Z,22.4
2019-01-21T03:44:49.767Z,22.4
2019-01-21T03:47:55.831Z,22.4
2019-01-21T03:51:01.851Z,22.4
2019-01-21T03:54:09.003Z,22.4
2019-01-21T03:57:15.030Z,22.5
2019-01-21T04:00:20.974Z,22.5
2019-01-21T04:03:26.978Z,22.6
2019-01-21T04:06:33.175Z,22.6
2019-01-21T04:09:39.140Z,22.6
2019-01-21T04:12:45.100Z,22.7
2019-01-21T04:15:51.139Z,22.7
2019-01-21T04:18:57.111Z,22.8
2019-01-21T04:22:03.079Z,22.8
2019-01-21T04:25:09.066Z,22.8
2019-01-21T04:28:15.393Z,22.8
2019-01-21T04:31:21.329Z,22.9
2019-01-21T04:34:29.725Z,22.9
2019-01-21T04:37:38.720Z,22.9
2019-01-21T04:40:44.686Z,23
2019-01-21T04:43:50.745Z,23
2019-01-21T04:46:56.657Z,23
2019-01-21T04:50:02.721Z,23
2019-01-21T04:53:09.892Z,23
2019-01-21T04:56:15.827Z,23.1
2019-01-21T04:59:21.918Z,23.1
2019-01-21T05:02:27.832Z,23.1
2019-01-21T05:05:35.349Z,23.2
2019-01-21T05:08:41.407Z,23.2
2019-01-21T05:11:47.818Z,23.2
2019-01-21T05:14:53.774Z,23.2
2019-01-21T05:17:59.808Z,23.3
2019-01-21T05:21:05.862Z,23.3
2019-01-21T05:24:11.762Z,23.3
2019-01-21T05:27:17.711Z,23.3
2019-01-21T05:30:26.388Z,23.3
2019-01-21T05:33:34.093Z,23.4
2019-01-21T05:36:40.035Z,23.4
2019-01-21T05:39:46.423Z,23.4
2019-01-21T05:42:52.327Z,23.4
2019-01-21T05:45:58.350Z,23.5
2019-01-21T05:49:07.214Z,23.5
2019-01-21T05:52:13.160Z,23.6
2019-01-21T05:55:19.110Z,23.6
2019-01-21T05:58:24.985Z,23.6
2019-01-21T06:01:30.947Z,23.6
2019-01-21T06:04:37.025Z,23.6
2019-01-21T06:07:43.232Z,23.7
2019-01-21T06:10:49.377Z,23.7
2019-01-21T06:13:58.100Z,23.8
2019-01-21T06:17:04.022Z,23.9
2019-01-21T06:20:09.947Z,23.9
2019-01-21T06:23:15.914Z,24
2019-01-21T06:26:21.916Z,24
2019-01-21T06:29:28.039Z,24
2019-01-21T06:32:33.927Z,24
2019-01-21T06:35:39.967Z,24.1
2019-01-21T06:38:46.166Z,24.2
2019-01-21T06:41:52.111Z,24.3
2019-01-21T06:44:58.199Z,24.4
2019-01-21T06:48:04.324Z,24.4
2019-01-21T06:51:12.915Z,24.5
2019-01-21T06:54:18.868Z,24.5
2019-01-21T06:57:25.023Z,24.5
2019-01-21T07:00:30.940Z,24.5
2019-01-21T07:03:39.941Z,24.5
2019-01-21T07:06:45.847Z,24.6
2019-01-21T07:09:52.887Z,24.7
2019-01-21T07:12:58.769Z,24.8
2019-01-21T07:16:06.982Z,24.8
2019-01-21T07:19:13.289Z,24.9
2019-01-21T07:22:19.255Z,24.9
2019-01-21T07:25:25.299Z,24.9
2019-01-21T07:28:31.331Z,24.9
2019-01-21T07:31:37.191Z,24.9
2019-01-21T07:34:43.240Z,25
2019-01-21T07:37:49.234Z,24.9
2019-01-21T07:40:56.237Z,25
2019-01-21T07:44:02.140Z,25
2019-01-21T07:47:08.107Z,25
2019-01-21T07:50:14.033Z,25
2019-01-21T07:53:19.938Z,24.9
2019-01-21T07:56:25.956Z,25
2019-01-21T07:59:31.927Z,25
2019-01-21T08:02:38.122Z,25.1
2019-01-21T08:05:43.991Z,25.1
2019-01-21T08:08:50.000Z,25.2
2019-01-21T08:11:55.903Z,25.2
2019-01-21T08:15:01.833Z,25.2
2019-01-21T08:18:07.866Z,25.3
2019-01-21T08:21:16.245Z,25.3
2019-01-21T08:24:22.298Z,25.3
2019-01-21T08:27:28.245Z,25.5
2019-01-21T08:30:34.172Z,25.5
2019-01-21T08:33:40.431Z,25.4
2019-01-21T08:36:46.357Z,25.4
2019-01-21T08:39:52.468Z,25.5
2019-01-21T08:42:58.464Z,25.6
2019-01-21T08:46:04.519Z,25.5
2019-01-21T08:49:10.577Z,25.6
2019-01-21T08:52:16.499Z,25.6
2019-01-21T08:55:22.602Z,25.6
2019-01-21T08:58:28.618Z,25.7
2019-01-21T09:01:34.592Z,25.7
2019-01-21T09:04:41.977Z,25.8
2019-01-21T09:07:47.876Z,25.8
2019-01-21T09:10:53.806Z,25.7
2019-01-21T09:13:59.890Z,25.7
2019-01-21T09:17:06.212Z,25.9
2019-01-21T09:20:12.285Z,25.9
2019-01-21T09:23:18.292Z,25.9
2019-01-21T09:26:24.230Z,25.9
2019-01-21T09:29:31.064Z,25.9
2019-01-21T09:32:37.973Z,25.8
2019-01-21T09:35:44.188Z,25.8
2019-01-21T09:38:50.282Z,25.8
2019-01-21T09:41:56.247Z,25.8
2019-01-21T09:45:02.303Z,25.8
2019-01-21T09:48:08.245Z,25.8
2019-01-21T09:51:14.502Z,25.8
2019-01-21T09:54:20.645Z,25.7
2019-01-21T09:57:26.594Z,25.7
2019-01-21T10:00:34.066Z,25.8
2019-01-21T10:03:40.057Z,25.8
2019-01-21T10:06:45.977Z,25.8
2019-01-21T10:09:55.236Z,25.8
2019-01-21T10:13:01.162Z,25.8
2019-01-21T10:16:07.154Z,25.7
2019-01-21T10:19:13.032Z,25.7
2019-01-21T10:22:18.970Z,25.6
2019-01-21T10:25:24.838Z,25.6
2019-01-21T10:28:30.867Z,25.5
2019-01-21T10:31:36.931Z,25.6
2019-01-21T10:34:42.885Z,25.6
2019-01-21T10:37:48.933Z,25.6
2019-01-21T10:40:55.898Z,25.5
2019-01-21T10:44:03.194Z,25.6
2019-01-21T10:47:09.382Z,25.6
2019-01-21T10:50:15.407Z,25.6
2019-01-21T10:53:21.514Z,25.7
2019-01-21T10:56:27.467Z,25.8
2019-01-21T10:59:33.518Z,25.8
2019-01-21T11:02:39.543Z,25.8
2019-01-21T11:05:45.532Z,25.8
2019-01-21T11:08:51.666Z,25.8
2019-01-21T11:12:01.561Z,25.8
2019-01-21T11:15:08.638Z,25.8
2019-01-21T11:18:14.569Z,25.8
2019-01-21T11:21:21.497Z,25.8
2019-01-21T11:24:30.933Z,25.8
2019-01-21T11:27:37.062Z,25.8
2019-01-21T11:30:43.107Z,25.8
2019-01-21T11:33:48.967Z,25.8
2019-01-21T11:36:55.030Z,25.8
2019-01-21T11:40:01.038Z,25.9
2019-01-21T11:43:08.391Z,25.8
2019-01-21T11:46:14.771Z,25.9
2019-01-21T11:49:20.818Z,26
2019-01-21T11:52:26.738Z,25.9
2019-01-21T11:55:32.834Z,26
2019-01-21T11:58:38.747Z,26
2019-01-21T12:01:44.856Z,26
2019-01-21T12:04:51.083Z,26
2019-01-21T12:07:57.133Z,26
2019-01-21T12:11:03.379Z,26.1
2019-01-21T12:14:10.544Z,26.1
2019-01-21T12:17:16.551Z,26
2019-01-21T12:20:25.174Z,26
2019-01-21T12:23:31.254Z,26
2019-01-21T12:26:37.609Z,26
2019-01-21T12:29:43.649Z,26
2019-01-21T12:32:49.672Z,26
2019-01-21T12:35:55.768Z,25.9
2019-01-21T12:39:01.696Z,25.9
2019-01-21T12:42:07.814Z,26
2019-01-21T12:45:13.894Z,26
2019-01-21T12:48:19.895Z,25.9
2019-01-21T12:51:25.952Z,25.9
2019-01-21T12:54:32.131Z,25.9
2019-01-21T12:57:38.247Z,25.9
2019-01-21T13:00:44.151Z,25.9
2019-01-21T13:03:50.177Z,25.9
2019-01-21T13:06:56.062Z,25.9
2019-01-21T13:10:07.066Z,25.9
2019-01-21T13:13:13.224Z,26
2019-01-21T13:16:19.205Z,26
2019-01-21T13:19:25.188Z,26
2019-01-21T13:22:31.070Z,26
2019-01-21T13:25:37.305Z,26
2019-01-21T13:28:43.240Z,26
2019-01-21T13:31:49.277Z,26.1
2019-01-21T13:34:55.308Z,26
2019-01-21T13:38:01.263Z,26.1
2019-01-21T13:41:07.171Z,26.1
2019-01-21T13:44:13.324Z,26
2019-01-21T13:47:19.292Z,26.1
2019-01-21T13:50:25.348Z,26.2
2019-01-21T13:53:37.834Z,26.2
2019-01-21T13:56:43.730Z,26.1
2019-01-21T13:59:49.667Z,26.1
2019-01-21T14:02:55.882Z,26.1
2019-01-21T14:06:01.979Z,26.2
2019-01-21T14:09:08.032Z,26.2
2019-01-21T14:12:17.231Z,26.3
2019-01-21T14:15:23.280Z,26.3
2019-01-21T14:18:29.797Z,26.3
2019-01-21T14:21:36.638Z,26.3
2019-01-21T14:24:43.122Z,26.3
2019-01-21T14:27:49.371Z,26.3
2019-01-21T14:30:57.191Z,26.3
2019-01-21T14:34:03.943Z,26.2
2019-01-21T14:37:09.944Z,26.2
2019-01-21T14:40:16.414Z,26.2
2019-01-21T14:43:22.363Z,26.1
2019-01-21T14:46:28.382Z,26.1
2019-01-21T14:49:34.367Z,26.1
2019-01-21T14:52:40.457Z,26.1
2019-01-21T14:55:46.495Z,26.1
2019-01-21T14:58:53.012Z,26.1
2019-01-21T15:01:59.082Z,26.1
2019-01-21T15:05:05.324Z,26
2019-01-21T15:08:11.516Z,26
2019-01-21T15:11:17.861Z,26
2019-01-21T15:14:24.706Z,26
2019-01-21T15:17:31.048Z,26
2019-01-21T15:20:37.384Z,25.9
2019-01-21T15:23:43.693Z,26
2019-01-21T15:26:50.122Z,25.9
2019-01-21T15:29:56.435Z,25.9
2019-01-21T15:33:03.049Z,25.9
2019-01-21T15:36:09.516Z,25.9
2019-01-21T15:39:15.915Z,25.9
2019-01-21T15:42:22.360Z,25.9
2019-01-21T15:45:29.016Z,25.9
2019-01-21T15:48:35.533Z,25.9
2019-01-21T15:51:41.579Z,25.9
2019-01-21T15:54:47.567Z,25.9
2019-01-21T15:57:55.618Z,25.8
2019-01-21T16:01:01.630Z,25.8
2019-01-21T16:04:07.492Z,25.8
2019-01-21T16:07:13.429Z,25.8
2019-01-21T16:10:19.473Z,25.8
2019-01-21T16:13:25.459Z,25.8
2019-01-21T16:16:33.888Z,25.8
2019-01-21T16:19:39.828Z,25.8
2019-01-21T16:22:45.703Z,25.8
2019-01-21T16:25:51.637Z,25.8
2019-01-21T16:28:57.604Z,25.7
2019-01-21T16:32:03.547Z,25.7
2019-01-21T16:35:09.545Z,25.7
2019-01-21T16:38:15.508Z,25.7
2019-01-21T16:41:21.443Z,25.7
2019-01-21T16:44:27.404Z,25.7
2019-01-21T16:47:33.483Z,25.7
2019-01-21T16:50:39.590Z,25.7
2019-01-21T16:53:45.521Z,25.7
2019-01-21T16:56:51.458Z,25.6
2019-01-21T16:59:57.401Z,25.6
2019-01-21T17:03:04.286Z,25.6
2019-01-21T17:06:11.344Z,25.6
2019-01-21T17:09:18.672Z,25.6
2019-01-21T17:12:24.864Z,25.6
2019-01-21T17:15:30.757Z,25.6
2019-01-21T17:18:36.709Z,25.6
2019-01-21T17:21:42.761Z,25.6
2019-01-21T17:24:48.773Z,25.6
2019-01-21T17:27:54.736Z,25.5
2019-01-21T17:31:00.660Z,25.5
2019-01-21T17:34:06.635Z,25.5
2019-01-21T17:37:12.530Z,25.5
2019-01-21T17:40:18.552Z,25.5
2019-01-21T17:43:24.552Z,25.5
2019-01-21T17:46:34.486Z,25.5
2019-01-21T17:49:40.506Z,25.5
2019-01-21T17:52:46.423Z,25.5
2019-01-21T17:55:52.467Z,25.5
2019-01-21T17:58:58.548Z,25.5
2019-01-21T18:02:04.565Z,25.4
2019-01-21T18:05:10.517Z,25.4
2019-01-21T18:08:17.740Z,25.4
2019-01-21T18:11:23.739Z,25.4
2019-01-21T18:14:29.712Z,25.3
2019-01-21T18:17:35.743Z,25.3
2019-01-21T18:20:41.689Z,25.3
2019-01-21T18:23:47.621Z,25.3
2019-01-21T18:26:53.500Z,25.2
2019-01-21T18:29:59.514Z,25.2
2019-01-21T18:33:07.092Z,25.2
2019-01-21T18:36:13.126Z,25.1
2019-01-21T18:39:20.415Z,25.1
2019-01-21T18:42:26.344Z,25.1
2019-01-21T18:45:32.233Z,25
2019-01-21T18:48:38.176Z,25
2019-01-21T18:51:46.695Z,24.9
2019-01-21T18:54:52.764Z,24.9
2019-01-21T18:57:58.708Z,24.8
2019-01-21T19:01:04.625Z,24.7
2019-01-21T19:04:10.694Z,24.7
2019-01-21T19:07:16.606Z,24.6
2019-01-21T19:10:22.572Z,24.6
2019-01-21T19:13:28.436Z,24.6
2019-01-21T19:16:34.394Z,24.5
2019-01-21T19:19:40.350Z,24.5
2019-01-21T19:22:46.288Z,24.4
2019-01-21T19:25:52.337Z,24.4
2019-01-21T19:28:58.310Z,24.4
2019-01-21T19:32:04.264Z,24.3
2019-01-21T19:35:10.351Z,24.3
2019-01-21T19:38:16.295Z,24.3
2019-01-21T19:41:22.258Z,24.2
2019-01-21T19:44:28.126Z,24.2
2019-01-21T19:47:34.093Z,24.2
2019-01-21T19:50:40.048Z,24.1
2019-01-21T19:53:45.962Z,24.1
2019-01-21T19:56:51.860Z,24.1
2019-01-21T19:59:57.948Z,24.1
2019-01-21T20:03:03.932Z,24
2019-01-21T20:06:09.893Z,24
2019-01-21T20:09:15.824Z,23.9
2019-01-21T20:12:21.804Z,23.9
2019-01-21T20:15:27.866Z,23.9
2019-01-21T20:18:33.881Z,23.9
2019-01-21T20:21:39.842Z,23.8
2019-01-21T20:24:45.706Z,23.8
2019-01-21T20:27:51.626Z,23.7
2019-01-21T20:30:57.523Z,23.7
2019-01-21T20:34:03.449Z,23.7
2019-01-21T20:37:09.337Z,23.6
2019-01-21T20:40:15.260Z,23.6
2019-01-21T20:43:21.244Z,23.6
2019-01-21T20:46:27.227Z,23.5
2019-01-21T20:49:33.318Z,23.5
2019-01-21T20:52:39.327Z,23.5
2019-01-21T20:55:45.235Z,23.5
2019-01-21T20:58:51.171Z,23.5
2019-01-21T21:01:57.170Z,23.4
2019-01-21T21:05:03.125Z,23.4
2019-01-21T21:08:09.040Z,23.4
2019-01-21T21:11:14.986Z,23.3
2019-01-21T21:14:20.983Z,23.3
2019-01-21T21:17:26.910Z,23.3
2019-01-21T21:20:32.853Z,23.2
2019-01-21T21:23:38.815Z,23.2
2019-01-21T21:26:44.694Z,23.2
2019-01-21T21:29:50.754Z,23.2
2019-01-21T21:32:56.816Z,23.1
2019-01-21T21:36:03.114Z,23.1
2019-01-21T21:39:09.036Z,23.1
2019-01-21T21:42:15.106Z,23.1
2019-01-21T21:45:21.066Z,23.1
2019-01-21T21:48:31.785Z,23
2019-01-21T21:51:37.959Z,23
2019-01-21T21:54:43.968Z,23
2019-01-21T21:57:50.074Z,23
2019-01-21T22:00:58.183Z,23
2019-01-21T22:04:04.047Z,23
2019-01-21T22:07:10.025Z,22.9
2019-01-21T22:10:19.657Z,22.9
2019-01-21T22:13:28.065Z,22.9
2019-01-21T22:16:33.965Z,22.9
2019-01-21T22:19:39.981Z,22.9
2019-01-21T22:22:45.947Z,22.9
2019-01-21T22:25:54.007Z,22.8
2019-01-21T22:29:00.047Z,22.8
2019-01-21T22:32:05.924Z,22.8
2019-01-21T22:35:12.033Z,22.8
2019-01-21T22:38:19.547Z,22.8
2019-01-21T22:41:28.578Z,22.8
2019-01-21T22:44:34.799Z,22.8
2019-01-21T22:47:40.731Z,22.8
2019-01-21T22:50:49.379Z,22.7
2019-01-21T22:53:55.414Z,22.7
2019-01-21T22:57:01.564Z,22.7
2019-01-21T23:00:07.575Z,22.7
2019-01-21T23:03:14.556Z,22.7
2019-01-21T23:06:20.483Z,22.7
2019-01-21T23:09:26.472Z,22.7
2019-01-21T23:12:32.455Z,22.7
2019-01-21T23:15:38.648Z,22.6
2019-01-21T23:18:44.531Z,22.6
2019-01-21T23:21:50.450Z,22.6
2019-01-21T23:24:56.699Z,22.6
2019-01-21T23:28:02.869Z,22.6
2019-01-21T23:31:08.913Z,22.6
2019-01-21T23:34:17.768Z,22.6
2019-01-21T23:37:24.682Z,22.6
2019-01-21T23:40:30.626Z,22.6
2019-01-21T23:43:36.617Z,22.5
2019-01-21T23:46:42.682Z,22.5
2019-01-21T23:49:50.397Z,22.5
2019-01-21T23:52:56.542Z,22.5
2019-01-21T23:56:02.519Z,22.5
2019-01-21T23:59:08.544Z,22.5
